Time;durP1;ratioP1;P1;durP2;ratioP2;P2;SDS_P1;SDS_P2;PMS_P1;PMS_P2;Temp;Humidity;BMP_temperature;BMP_pressure;BME280_temperature;BME280_humidity;BME280_pressure;Samples;Min_cycle;Max_cycle;Signal;HPM_P1;HPM_P2
2021/09/06 00:02:06;;;;;;;7.28;5.72;;;17.40;73.20;;;;;;5078672;28;20024;-76
2021/09/06 00:04:33;;;;;;;7.88;5.38;;;17.40;73.30;;;;;;5071420;28;20043;-76
2021/09/06 00:06:59;;;;;;;5.40;4.30;;;17.50;73.00;;;;;;5085186;28;20684;-76
2021/09/06 00:09:24;;;;;;;6.78;4.88;;;17.40;72.90;;;;;;5076684;28;20038;-75
2021/09/06 00:11:50;;;;;;;7.72;5.05;;;17.40;72.70;;;;;;5065774;28;20050;-75
2021/09/06 00:14:15;;;;;;;6.90;4.85;;;17.50;72.60;;;;;;5085952;28;20404;-76
2021/09/06 00:16:41;;;;;;;6.70;4.93;;;17.50;72.40;;;;;;5074443;28;20201;-76
2021/09/06 00:19:06;;;;;;;6.30;4.53;;;17.40;72.20;;;;;;5082577;28;20054;-76
2021/09/06 00:21:32;;;;;;;6.82;4.80;;;17.50;72.10;;;;;;5090265;28;20017;-76
2021/09/06 00:23:58;;;;;;;6.55;4.45;;;17.40;72.10;;;;;;5083777;28;20028;-76
2021/09/06 00:26:24;;;;;;;6.57;4.38;;;17.40;72.00;;;;;;5083452;28;20365;-77
2021/09/06 00:28:49;;;;;;;6.18;4.43;;;17.40;71.90;;;;;;5085225;28;20032;-76
2021/09/06 00:31:15;;;;;;;7.28;4.70;;;17.30;71.90;;;;;;5076972;28;20052;-76
2021/09/06 00:33:44;;;;;;;7.00;4.65;;;17.30;71.80;;;;;;5089441;28;20665;-76
2021/09/06 00:36:09;;;;;;;6.35;4.80;;;17.30;71.80;;;;;;5079250;28;20102;-76
2021/09/06 00:38:35;;;;;;;6.28;4.50;;;17.20;71.80;;;;;;5083529;28;20558;-76
2021/09/06 00:41:01;;;;;;;6.78;4.70;;;17.20;71.80;;;;;;5078723;28;20085;-76
2021/09/06 00:43:26;;;;;;;6.18;4.75;;;17.20;71.80;;;;;;5089452;28;20103;-76
2021/09/06 00:45:52;;;;;;;5.63;4.40;;;17.10;71.70;;;;;;5075848;28;20027;-76
2021/09/06 00:48:18;;;;;;;6.47;4.57;;;17.10;71.80;;;;;;5080955;28;20024;-76
2021/09/06 00:50:45;;;;;;;5.22;4.18;;;17.00;71.80;;;;;;5088613;28;20031;-76
2021/09/06 00:53:11;;;;;;;6.22;4.50;;;17.00;71.80;;;;;;5089817;28;20031;-76
2021/09/06 00:55:37;;;;;;;6.70;4.60;;;17.00;71.80;;;;;;5075546;28;20444;-76
2021/09/06 00:58:02;;;;;;;6.63;4.95;;;17.00;71.70;;;;;;5092134;28;20024;-76
2021/09/06 01:00:28;;;;;;;6.03;4.40;;;16.90;71.70;;;;;;5087732;28;20249;-76
2021/09/06 01:02:54;;;;;;;6.47;5.07;;;16.90;71.70;;;;;;5079453;28;20112;-76
2021/09/06 01:05:19;;;;;;;6.05;4.40;;;16.80;71.70;;;;;;5087495;28;20111;-76
2021/09/06 01:07:45;;;;;;;5.82;4.20;;;16.80;71.70;;;;;;5075285;28;20024;-76
2021/09/06 01:10:13;;;;;;;6.88;4.93;;;16.80;71.70;;;;;;5086735;28;20044;-77
2021/09/06 01:12:40;;;;;;;6.85;5.00;;;16.70;71.80;;;;;;5082960;28;20062;-77
2021/09/06 01:15:07;;;;;;;6.45;4.57;;;16.70;71.90;;;;;;5077331;28;20043;-76
2021/09/06 01:17:33;;;;;;;5.72;4.28;;;16.70;71.90;;;;;;5088331;28;20074;-76
2021/09/06 01:19:58;;;;;;;7.43;4.47;;;16.60;71.80;;;;;;5076424;28;20456;-76
2021/09/06 01:22:24;;;;;;;5.25;4.43;;;16.60;71.90;;;;;;5082319;28;20031;-74
2021/09/06 01:24:50;;;;;;;6.97;4.88;;;16.60;72.00;;;;;;5083699;28;20016;-75
2021/09/06 01:27:16;;;;;;;6.40;4.72;;;16.50;72.10;;;;;;5074896;28;20051;-77
2021/09/06 01:29:42;;;;;;;7.15;4.88;;;16.50;72.20;;;;;;5080669;28;20021;-75
2021/09/06 01:32:08;;;;;;;7.70;5.97;;;16.50;72.30;;;;;;5063622;28;20043;-75
2021/09/06 01:34:34;;;;;;;7.30;5.20;;;16.60;72.50;;;;;;5081952;28;20054;-76
2021/09/06 01:37:01;;;;;;;6.53;4.85;;;16.60;72.50;;;;;;5077591;28;20534;-76
2021/09/06 01:39:27;;;;;;;6.82;4.70;;;16.60;72.50;;;;;;5082895;28;20021;-77
2021/09/06 01:41:53;;;;;;;7.25;4.63;;;16.70;72.50;;;;;;5086988;28;20211;-76
2021/09/06 01:44:18;;;;;;;7.00;5.10;;;16.70;72.40;;;;;;5078082;28;20039;-76
2021/09/06 01:46:44;;;;;;;7.20;5.13;;;16.60;72.20;;;;;;5079292;28;20028;-76
2021/09/06 01:49:09;;;;;;;8.52;5.53;;;16.70;72.40;;;;;;5081820;28;20035;-76
2021/09/06 01:51:35;;;;;;;7.57;5.28;;;16.60;72.40;;;;;;5086490;28;20028;-76
2021/09/06 01:54:01;;;;;;;6.88;5.00;;;16.60;72.50;;;;;;5074687;28;20031;-76
2021/09/06 01:56:27;;;;;;;6.70;5.03;;;16.60;72.50;;;;;;5097291;28;20086;-76
2021/09/06 01:58:52;;;;;;;6.65;5.03;;;16.60;72.50;;;;;;5071378;28;20475;-77
2021/09/06 02:01:18;;;;;;;7.53;4.85;;;16.50;72.50;;;;;;5087368;28;20209;-77
2021/09/06 02:03:44;;;;;;;6.82;4.80;;;16.50;72.50;;;;;;5074503;28;20073;-78
2021/09/06 02:06:10;;;;;;;5.35;4.32;;;16.50;72.60;;;;;;5084005;28;20103;-77
2021/09/06 02:08:35;;;;;;;6.43;4.50;;;16.40;72.60;;;;;;5061972;28;20074;-77
2021/09/06 02:11:02;;;;;;;4.93;3.85;;;16.30;72.60;;;;;;5068762;28;20421;-77
2021/09/06 02:13:27;;;;;;;5.93;4.55;;;16.30;72.60;;;;;;5085105;28;20071;-77
2021/09/06 02:15:53;;;;;;;6.45;4.75;;;16.20;72.60;;;;;;5074865;28;20461;-77
2021/09/06 02:18:18;;;;;;;6.60;4.57;;;16.20;72.70;;;;;;5082212;28;20016;-76
2021/09/06 02:20:44;;;;;;;6.97;4.90;;;16.20;72.70;;;;;;5082487;28;20034;-75
2021/09/06 02:23:09;;;;;;;6.60;4.78;;;16.10;72.60;;;;;;5075622;28;20434;-76
2021/09/06 02:25:35;;;;;;;6.38;4.90;;;16.10;72.60;;;;;;5070029;28;20021;-76
2021/09/06 02:28:01;;;;;;;6.80;5.00;;;16.00;72.70;;;;;;5075189;28;20039;-76
2021/09/06 02:30:26;;;;;;;7.70;5.32;;;16.00;72.80;;;;;;5080384;28;20395;-76
2021/09/06 02:32:52;;;;;;;7.60;5.50;;;16.00;72.80;;;;;;5082453;28;20060;-76
2021/09/06 02:35:18;;;;;;;6.18;4.65;;;16.00;72.70;;;;;;5078192;28;20422;-76
2021/09/06 02:37:43;;;;;;;6.93;5.13;;;15.90;72.80;;;;;;5077034;28;20032;-76
2021/09/06 02:40:12;;;;;;;5.63;4.28;;;15.90;72.90;;;;;;5083417;28;20020;-76
2021/09/06 02:42:38;;;;;;;6.47;4.75;;;15.80;72.90;;;;;;5079909;28;20028;-76
2021/09/06 02:45:04;;;;;;;6.70;4.90;;;15.80;73.00;;;;;;5070087;28;20038;-76
2021/09/06 02:47:30;;;;;;;7.03;5.20;;;15.80;73.00;;;;;;5086826;28;20117;-76
2021/09/06 02:49:57;;;;;;;6.68;4.75;;;15.80;73.00;;;;;;5075526;28;20054;-76
2021/09/06 02:52:26;;;;;;;6.38;4.50;;;15.80;73.00;;;;;;5081818;28;20530;-76
2021/09/06 02:54:52;;;;;;;6.85;4.93;;;15.70;73.10;;;;;;5082864;28;20034;-77
2021/09/06 02:57:17;;;;;;;8.30;5.60;;;15.70;73.20;;;;;;5073925;28;20036;-76
2021/09/06 02:59:43;;;;;;;6.63;5.10;;;15.70;73.20;;;;;;5086829;28;20434;-76
2021/09/06 03:02:08;;;;;;;7.53;5.22;;;15.70;73.20;;;;;;5076259;28;20032;-76
2021/09/06 03:04:34;;;;;;;7.03;4.65;;;15.70;73.20;;;;;;5085344;28;20070;-77
2021/09/06 03:06:59;;;;;;;6.80;4.63;;;15.70;73.10;;;;;;5079285;28;20504;-76
2021/09/06 03:09:25;;;;;;;6.45;4.75;;;15.70;73.10;;;;;;5090911;28;20034;-76
2021/09/06 03:11:51;;;;;;;7.40;4.80;;;15.60;73.20;;;;;;5067463;28;20162;-76
2021/09/06 03:14:16;;;;;;;6.53;4.82;;;15.60;73.10;;;;;;5081367;28;20074;-76
2021/09/06 03:16:42;;;;;;;6.70;4.68;;;15.60;73.10;;;;;;5081189;28;20044;-76
2021/09/06 03:19:07;;;;;;;6.28;4.38;;;15.60;73.20;;;;;;5075003;28;20036;-76
2021/09/06 03:21:33;;;;;;;6.60;4.78;;;15.50;73.20;;;;;;5089034;28;20032;-76
2021/09/06 03:23:59;;;;;;;7.10;5.03;;;15.60;73.30;;;;;;5078496;28;20111;-77
2021/09/06 03:26:24;;;;;;;7.40;5.07;;;15.50;73.40;;;;;;5084948;28;20024;-77
2021/09/06 03:28:50;;;;;;;7.47;5.20;;;15.50;73.30;;;;;;5078028;28;20021;-77
2021/09/06 03:31:16;;;;;;;6.47;4.93;;;15.50;73.30;;;;;;5085927;28;20036;-75
2021/09/06 03:33:42;;;;;;;6.40;4.63;;;15.50;73.30;;;;;;5077249;28;20028;-77
2021/09/06 03:36:07;;;;;;;5.68;4.47;;;15.50;73.40;;;;;;5102720;28;20402;-76
2021/09/06 03:38:33;;;;;;;7.00;5.10;;;15.50;73.40;;;;;;5080578;28;20020;-76
2021/09/06 03:40:59;;;;;;;6.97;4.90;;;15.50;73.50;;;;;;5053873;28;20633;-76
2021/09/06 03:43:25;;;;;;;6.05;4.32;;;15.50;73.50;;;;;;5071566;28;20024;-76
2021/09/06 03:45:51;;;;;;;7.68;5.18;;;15.50;73.50;;;;;;5089006;28;20085;-76
2021/09/06 03:48:16;;;;;;;6.72;4.97;;;15.50;73.50;;;;;;5081580;28;20474;-76
2021/09/06 03:50:42;;;;;;;7.25;4.78;;;15.40;73.50;;;;;;5078242;28;20501;-77
2021/09/06 03:53:07;;;;;;;5.75;4.35;;;15.40;73.60;;;;;;5078663;28;20066;-77
2021/09/06 03:55:33;;;;;;;6.90;4.97;;;15.40;73.70;;;;;;5090223;28;20028;-76
2021/09/06 03:57:58;;;;;;;6.90;5.03;;;15.40;73.70;;;;;;5078188;28;20024;-76
2021/09/06 04:00:24;;;;;;;6.30;4.78;;;15.30;73.70;;;;;;5067011;28;20367;-75
2021/09/06 04:02:50;;;;;;;6.75;4.70;;;15.40;73.70;;;;;;5085963;28;20106;-76
2021/09/06 04:05:15;;;;;;;6.07;4.03;;;15.40;73.80;;;;;;5076186;28;20387;-76
2021/09/06 04:07:41;;;;;;;6.20;4.60;;;15.30;73.70;;;;;;5089757;28;20127;-76
2021/09/06 04:10:07;;;;;;;6.35;4.60;;;15.30;73.70;;;;;;5078843;28;20047;-76
2021/09/06 04:12:33;;;;;;;5.93;4.55;;;15.30;73.80;;;;;;5085591;28;20032;-76
2021/09/06 04:15:00;;;;;;;6.05;4.32;;;15.30;73.80;;;;;;5092165;28;20047;-76
2021/09/06 04:17:26;;;;;;;6.13;4.53;;;15.30;73.70;;;;;;5074305;28;20056;-76
2021/09/06 04:19:51;;;;;;;7.13;4.93;;;15.30;73.70;;;;;;5063081;28;20118;-75
2021/09/06 04:22:17;;;;;;;7.53;4.88;;;15.30;73.60;;;;;;5068608;28;20024;-75
2021/09/06 04:24:42;;;;;;;7.18;4.60;;;15.30;73.60;;;;;;5081814;28;20044;-76
2021/09/06 04:27:08;;;;;;;7.50;4.38;;;15.30;73.60;;;;;;5087818;28;20031;-77
2021/09/06 04:29:33;;;;;;;6.90;4.45;;;15.20;73.50;;;;;;5075314;28;20025;-76
2021/09/06 04:31:59;;;;;;;6.07;4.68;;;15.30;73.60;;;;;;5079893;28;20044;-76
2021/09/06 04:34:24;;;;;;;5.88;4.50;;;15.20;73.60;;;;;;5082556;28;20027;-76
2021/09/06 04:36:50;;;;;;;5.70;4.32;;;15.20;73.60;;;;;;5083551;28;20117;-76
2021/09/06 04:39:15;;;;;;;7.10;4.80;;;15.20;73.60;;;;;;5072514;28;20021;-76
2021/09/06 04:41:44;;;;;;;6.68;4.65;;;15.10;73.60;;;;;;5089625;28;20027;-76
2021/09/06 04:44:10;;;;;;;5.75;4.28;;;15.10;73.70;;;;;;5076220;28;20474;-77
2021/09/06 04:46:35;;;;;;;6.30;4.57;;;15.10;73.70;;;;;;5082205;28;20074;-77
2021/09/06 04:49:01;;;;;;;6.82;4.30;;;15.00;73.70;;;;;;5083757;28;20020;-76
2021/09/06 04:51:26;;;;;;;6.35;4.68;;;15.00;73.80;;;;;;5087091;28;20496;-76
2021/09/06 04:53:52;;;;;;;6.95;4.70;;;15.00;73.90;;;;;;5076693;28;20028;-77
2021/09/06 04:56:20;;;;;;;8.80;5.53;;;15.00;73.80;;;;;;5082527;28;20466;-77
2021/09/06 04:58:45;;;;;;;7.32;4.95;;;15.00;73.80;;;;;;5084254;28;20032;-77
2021/09/06 05:01:11;;;;;;;6.40;4.90;;;15.00;73.90;;;;;;5076157;28;20025;-77
2021/09/06 05:03:36;;;;;;;6.60;5.05;;;15.00;73.80;;;;;;5088739;28;20028;-78
2021/09/06 05:06:02;;;;;;;7.03;4.90;;;15.00;73.80;;;;;;5067428;28;20032;-76
2021/09/06 05:08:28;;;;;;;6.28;4.57;;;15.00;73.80;;;;;;5070777;28;20017;-75
2021/09/06 05:10:54;;;;;;;7.30;4.90;;;15.00;73.90;;;;;;5087364;28;20032;-75
2021/09/06 05:13:20;;;;;;;6.95;4.85;;;15.00;73.80;;;;;;5091234;28;20111;-75
2021/09/06 05:15:46;;;;;;;7.53;5.45;;;15.00;73.80;;;;;;5085807;28;20113;-75
2021/09/06 05:18:11;;;;;;;7.65;5.28;;;15.00;73.80;;;;;;5055018;28;20021;-75
2021/09/06 05:20:38;;;;;;;7.35;5.00;;;15.00;73.80;;;;;;5074274;28;20027;-75
2021/09/06 05:23:04;;;;;;;7.03;5.07;;;15.00;73.90;;;;;;5077672;28;20111;-74
2021/09/06 05:25:30;;;;;;;8.75;5.30;;;15.00;73.90;;;;;;5081599;28;20167;-75
2021/09/06 05:27:56;;;;;;;7.20;5.22;;;15.00;73.90;;;;;;5085597;28;20543;-75
2021/09/06 05:30:22;;;;;;;7.20;5.38;;;15.10;73.80;;;;;;5080168;28;20139;-75
2021/09/06 05:32:47;;;;;;;7.18;5.13;;;15.20;74.30;;;;;;5079471;28;20032;-75
2021/09/06 05:35:13;;;;;;;8.18;5.38;;;15.20;73.60;;;;;;5083071;28;20047;-74
2021/09/06 05:37:38;;;;;;;7.25;5.30;;;15.20;73.60;;;;;;5086365;28;20032;-75
2021/09/06 05:40:05;;;;;;;6.47;4.85;;;15.30;73.50;;;;;;5077596;28;20027;-75
2021/09/06 05:42:30;;;;;;;7.35;4.68;;;15.30;73.40;;;;;;5078342;28;20028;-76
2021/09/06 05:44:57;;;;;;;6.97;4.90;;;15.30;73.30;;;;;;5078756;28;20051;-76
2021/09/06 05:47:22;;;;;;;9.40;4.72;;;15.40;73.30;;;;;;5074727;28;20028;-77
2021/09/06 05:49:48;;;;;;;6.60;4.82;;;15.40;73.30;;;;;;5067981;28;20112;-77
2021/09/06 05:52:13;;;;;;;6.88;4.93;;;15.40;73.30;;;;;;5070096;28;20044;-77
2021/09/06 05:54:39;;;;;;;7.43;5.32;;;15.60;73.40;;;;;;5066958;28;20107;-77
2021/09/06 05:57:04;;;;;;;7.55;5.43;;;16.60;72.60;;;;;;5069422;28;20103;-77
2021/09/06 05:59:30;;;;;;;9.30;5.90;;;18.00;70.00;;;;;;5068623;28;20046;-77
2021/09/06 06:01:56;;;;;;;9.18;6.32;;;19.20;67.10;;;;;;5068479;28;20028;-76
2021/09/06 06:04:21;;;;;;;7.78;5.70;;;20.40;64.50;;;;;;5073003;28;20023;-76
2021/09/06 06:06:47;;;;;;;8.32;5.82;;;21.40;62.30;;;;;;5083275;28;20035;-76
2021/09/06 06:09:13;;;;;;;8.60;6.13;;;22.30;60.40;;;;;;5067759;28;20024;-75
2021/09/06 06:11:40;;;;;;;8.52;6.38;;;23.10;58.70;;;;;;5076813;28;20055;-75
2021/09/06 06:14:06;;;;;;;7.68;5.63;;;23.80;57.50;;;;;;5077728;28;20016;-76
2021/09/06 06:16:32;;;;;;;7.70;6.00;;;24.40;56.40;;;;;;5070532;28;20039;-77
2021/09/06 06:18:57;;;;;;;6.15;4.82;;;25.00;55.20;;;;;;5070571;28;20027;-77
2021/09/06 06:21:23;;;;;;;6.88;5.20;;;25.50;54.50;;;;;;5080266;28;20016;-76
2021/09/06 06:23:49;;;;;;;7.75;5.60;;;26.00;53.60;;;;;;5071862;28;20032;-77
2021/09/06 06:26:15;;;;;;;6.90;5.25;;;26.60;52.70;;;;;;5074048;28;20021;-77
2021/09/06 06:28:40;;;;;;;6.15;4.57;;;27.10;51.90;;;;;;5068903;28;20474;-77
2021/09/06 06:31:06;;;;;;;7.85;5.75;;;27.50;51.10;;;;;;5074704;28;20036;-76
2021/09/06 06:33:31;;;;;;;6.22;4.95;;;27.80;50.50;;;;;;5072913;28;20017;-76
2021/09/06 06:35:59;;;;;;;6.93;5.55;;;28.20;50.10;;;;;;5065081;28;20501;-77
2021/09/06 06:38:24;;;;;;;8.27;5.82;;;28.60;49.50;;;;;;5065889;28;20832;-77
2021/09/06 06:40:52;;;;;;;7.72;6.18;;;28.90;48.90;;;;;;5069492;28;20070;-77
2021/09/06 06:43:18;;;;;;;7.72;5.85;;;29.20;48.30;;;;;;5063476;28;20044;-79
2021/09/06 06:45:43;;;;;;;7.85;5.55;;;29.50;48.20;;;;;;5068879;28;20029;-77
2021/09/06 06:48:09;;;;;;;9.25;6.55;;;29.70;47.90;;;;;;5069598;28;20021;-77
2021/09/06 06:50:34;;;;;;;7.65;5.88;;;30.10;47.50;;;;;;5070132;28;20528;-77
2021/09/06 06:53:00;;;;;;;6.40;5.05;;;30.40;47.10;;;;;;5068717;28;20021;-78
2021/09/06 06:55:26;;;;;;;6.40;4.78;;;30.70;46.80;;;;;;5064654;28;20063;-77
2021/09/06 06:57:51;;;;;;;6.45;4.85;;;31.00;46.20;;;;;;5073506;28;20051;-76
2021/09/06 07:00:20;;;;;;;6.43;4.68;;;31.40;45.60;;;;;;5068908;28;20021;-77
2021/09/06 07:02:46;;;;;;;6.13;4.95;;;31.70;45.10;;;;;;5073380;28;20116;-77
2021/09/06 07:05:12;;;;;;;6.75;5.03;;;31.80;44.80;;;;;;5069708;28;20100;-81
2021/09/06 07:07:38;;;;;;;6.68;5.22;;;32.10;44.20;;;;;;5067823;28;20035;-78
2021/09/06 07:10:06;;;;;;;6.70;5.13;;;32.40;43.70;;;;;;5063205;28;20040;-78
2021/09/06 07:12:34;;;;;;;7.30;5.90;;;32.40;43.50;;;;;;5061957;28;20048;-79
2021/09/06 07:15:00;;;;;;;6.53;4.30;;;32.40;43.20;;;;;;5058817;28;20025;-75
2021/09/06 07:17:25;;;;;;;6.05;4.57;;;32.40;43.40;;;;;;5063778;28;20436;-78
2021/09/06 07:19:51;;;;;;;6.53;4.88;;;32.50;43.20;;;;;;5060933;28;20077;-78
2021/09/06 07:22:16;;;;;;;6.47;4.82;;;32.60;42.90;;;;;;5065497;28;20174;-77
2021/09/06 07:24:42;;;;;;;6.78;4.75;;;32.60;42.70;;;;;;5067160;28;20037;-79
2021/09/06 07:27:08;;;;;;;7.95;5.57;;;32.50;42.60;;;;;;5069538;28;20020;-78
2021/09/06 07:29:34;;;;;;;7.03;5.07;;;32.40;42.30;;;;;;5068766;28;20020;-79
2021/09/06 07:32:00;;;;;;;5.35;4.57;;;32.20;42.20;;;;;;5070724;28;20620;-78
2021/09/06 07:34:26;;;;;;;5.65;4.50;;;32.10;42.40;;;;;;5070829;28;20028;-79
2021/09/06 07:36:52;;;;;;;6.40;4.63;;;32.30;42.30;;;;;;5066871;28;20139;-79
2021/09/06 07:39:17;;;;;;;6.05;4.50;;;32.40;42.10;;;;;;5072179;28;20046;-78
2021/09/06 07:41:44;;;;;;;5.50;4.38;;;31.80;42.10;;;;;;5068641;28;20024;-78
2021/09/06 07:44:10;;;;;;;7.32;5.30;;;30.80;43.00;;;;;;5069621;28;20024;-77
2021/09/06 07:46:36;;;;;;;6.53;4.45;;;30.00;44.00;;;;;;5070019;28;20028;-79
2021/09/06 07:49:01;;;;;;;5.80;4.28;;;29.50;44.80;;;;;;5069862;28;20373;-80
2021/09/06 07:51:27;;;;;;;6.57;4.90;;;29.00;45.50;;;;;;5068842;28;20450;-78
2021/09/06 07:54:00;;;;;;;6.38;5.00;;;28.50;46.20;;;;;;5076138;28;20039;-78
2021/09/06 07:56:26;;;;;;;5.00;4.07;;;28.00;46.80;;;;;;5070162;28;20026;-75
2021/09/06 07:58:51;;;;;;;6.38;4.75;;;27.50;47.70;;;;;;5069886;28;20029;-77
2021/09/06 08:01:17;;;;;;;7.57;5.80;;;27.20;48.10;;;;;;5073420;28;20025;-77
2021/09/06 08:03:42;;;;;;;10.90;6.80;;;26.60;48.60;;;;;;5072462;28;20032;-74
2021/09/06 08:06:08;;;;;;;7.90;6.30;;;25.60;50.10;;;;;;5084322;28;20024;-76
2021/09/06 08:08:33;;;;;;;7.22;6.00;;;25.00;51.40;;;;;;5074853;28;20032;-76
2021/09/06 08:10:59;;;;;;;7.13;5.00;;;24.50;52.70;;;;;;5075052;28;20039;-77
2021/09/06 08:13:27;;;;;;;6.10;4.93;;;24.30;53.50;;;;;;5074890;28;20025;-76
2021/09/06 08:15:53;;;;;;;8.60;5.53;;;24.10;54.00;;;;;;5070037;28;20020;-76
2021/09/06 08:18:18;;;;;;;5.47;4.00;;;24.00;54.40;;;;;;5071597;28;20038;-75
2021/09/06 08:20:44;;;;;;;6.63;4.80;;;24.00;54.70;;;;;;5069521;28;20060;-78
2021/09/06 08:23:10;;;;;;;8.77;6.28;;;23.90;54.90;;;;;;5071309;28;20529;-79
2021/09/06 08:25:35;;;;;;;5.20;4.18;;;23.70;55.40;;;;;;5071618;28;20024;-78
2021/09/06 08:28:01;;;;;;;9.48;6.88;;;23.50;55.90;;;;;;5066740;28;20386;-79
2021/09/06 08:30:26;;;;;;;5.88;4.57;;;23.40;56.50;;;;;;5069093;28;20386;-77
2021/09/06 08:32:52;;;;;;;6.43;4.93;;;23.30;56.90;;;;;;5068805;28;20044;-78
2021/09/06 08:35:19;;;;;;;9.50;7.05;;;23.30;57.20;;;;;;5067176;28;20495;-76
2021/09/06 08:37:45;;;;;;;6.78;4.63;;;23.00;57.50;;;;;;5069280;28;20098;-76
2021/09/06 08:40:12;;;;;;;6.57;4.85;;;22.90;58.00;;;;;;5066126;28;20021;-82
2021/09/06 08:42:39;;;;;;;6.70;4.47;;;22.90;58.10;;;;;;5065462;28;20024;-82
2021/09/06 08:45:06;;;;;;;5.00;3.35;;;22.90;58.10;;;;;;5072609;28;20032;-78
2021/09/06 08:47:32;;;;;;;8.95;6.70;;;23.00;58.20;;;;;;5064942;28;20033;-80
2021/09/06 08:49:59;;;;;;;9.95;6.93;;;22.90;58.30;;;;;;5065546;28;20035;-79
2021/09/06 08:52:24;;;;;;;8.30;5.88;;;22.80;58.50;;;;;;5070590;28;20041;-81
2021/09/06 08:54:50;;;;;;;6.57;4.78;;;22.70;58.80;;;;;;5068600;28;20108;-79
2021/09/06 08:57:16;;;;;;;6.38;4.40;;;22.70;59.00;;;;;;5068590;28;20028;-78
2021/09/06 08:59:44;;;;;;;5.50;4.05;;;22.80;58.90;;;;;;5069415;28;20020;-80
2021/09/06 09:02:11;;;;;;;4.93;3.70;;;22.80;58.90;;;;;;5070055;28;20036;-79
2021/09/06 09:04:37;;;;;;;8.00;5.57;;;22.90;58.80;;;;;;5066343;28;20819;-76
2021/09/06 09:07:04;;;;;;;9.38;6.35;;;22.80;58.50;;;;;;5069807;28;20111;-77
2021/09/06 09:09:37;;;;;;;6.45;4.38;;;22.90;58.60;;;;;;5068908;28;20032;-77
2021/09/06 09:12:16;;;;;;;6.35;4.43;;;22.90;58.50;;;;;;5069423;28;20029;-78
2021/09/06 09:14:50;;;;;;;5.72;4.28;;;23.00;58.20;;;;;;5067884;28;20021;-78
2021/09/06 09:17:16;;;;;;;5.68;3.45;;;23.00;58.20;;;;;;5067878;28;21890;-77
2021/09/06 09:19:43;;;;;;;5.78;4.00;;;23.00;58.10;;;;;;5069529;28;20016;-78
2021/09/06 09:22:15;;;;;;;6.65;4.53;;;23.00;58.00;;;;;;5067118;28;20440;-77
2021/09/06 09:24:41;;;;;;;7.22;5.40;;;23.10;58.00;;;;;;5063041;28;20020;-76
2021/09/06 09:27:13;;;;;;;6.65;4.57;;;23.00;58.00;;;;;;5068866;28;20032;-79
2021/09/06 09:29:43;;;;;;;6.03;3.65;;;23.00;58.20;;;;;;5068594;28;20020;-78
2021/09/06 09:32:11;;;;;;;5.13;3.50;;;23.10;58.20;;;;;;5071038;28;20032;-81
2021/09/06 09:34:43;;;;;;;5.70;4.00;;;23.20;58.10;;;;;;5067174;28;20020;-81
2021/09/06 09:37:11;;;;;;;4.78;3.58;;;23.20;57.80;;;;;;5069005;28;20032;-82
2021/09/06 09:39:38;;;;;;;4.50;3.50;;;23.20;57.60;;;;;;5066106;28;20016;-84
2021/09/06 09:42:09;;;;;;;4.78;3.60;;;23.30;57.30;;;;;;5066897;28;20028;-81
2021/09/06 09:44:49;;;;;;;5.33;3.60;;;23.30;57.00;;;;;;5062921;28;20065;-81
2021/09/06 09:47:19;;;;;;;5.43;4.07;;;23.30;56.90;;;;;;5062242;28;20036;-81
2021/09/06 09:49:46;;;;;;;6.80;5.05;;;23.40;56.90;;;;;;5067569;28;20451;-81
2021/09/06 09:52:11;;;;;;;7.32;5.25;;;23.30;56.60;;;;;;5072657;28;20033;-82
2021/09/06 09:54:37;;;;;;;4.68;3.47;;;23.30;56.70;;;;;;5068579;28;21280;-81
2021/09/06 09:57:03;;;;;;;6.47;4.40;;;23.30;57.00;;;;;;5072418;28;20505;-78
2021/09/06 09:59:29;;;;;;;5.07;3.70;;;23.30;57.10;;;;;;5069015;28;20036;-80
2021/09/06 10:02:06;;;;;;;7.45;5.20;;;23.40;57.20;;;;;;5073905;28;20043;-79
2021/09/06 10:04:34;;;;;;;5.72;3.88;;;23.40;56.40;;;;;;5065908;28;20075;-80
2021/09/06 10:07:01;;;;;;;5.05;3.90;;;23.50;56.40;;;;;;5071846;28;20049;-81
2021/09/06 10:09:27;;;;;;;5.63;3.60;;;23.50;57.00;;;;;;5073662;28;20020;-81
2021/09/06 10:12:03;;;;;;;6.45;4.53;;;23.50;56.30;;;;;;5071656;28;20123;-82
2021/09/06 10:14:29;;;;;;;4.82;3.40;;;23.50;55.90;;;;;;5067507;28;20099;-82
2021/09/06 10:17:06;;;;;;;4.60;3.10;;;23.60;55.60;;;;;;5066768;28;20037;-82
2021/09/06 10:19:49;;;;;;;4.53;3.13;;;23.70;55.10;;;;;;5067753;28;20873;-82
2021/09/06 10:22:24;;;;;;;5.15;3.05;;;23.80;55.10;;;;;;5066780;28;20044;-82
2021/09/06 10:25:03;;;;;;;4.65;3.15;;;23.80;54.90;;;;;;5067201;28;20028;-81
2021/09/06 10:27:30;;;;;;;4.53;3.05;;;23.90;54.50;;;;;;5070479;28;20028;-81
2021/09/06 10:30:02;;;;;;;4.97;3.83;;;23.90;54.50;;;;;;5073335;28;20481;-83
2021/09/06 10:32:42;;;;;;;5.90;3.90;;;23.90;54.00;;;;;;5068497;28;20039;-83
2021/09/06 10:35:20;;;;;;;4.40;3.38;;;24.00;53.80;;;;;;5067757;28;20032;-76
2021/09/06 10:38:07;;;;;;;4.70;3.70;;;24.00;53.90;;;;;;5068549;28;20028;-79
2021/09/06 10:40:39;;;;;;;4.57;3.35;;;24.10;53.50;;;;;;5066688;28;20055;-82
2021/09/06 10:43:21;;;;;;;5.78;3.30;;;24.10;53.50;;;;;;5072613;28;20027;-80
2021/09/06 10:45:49;;;;;;;5.20;3.80;;;24.20;53.20;;;;;;5069267;28;20020;-78
2021/09/06 10:48:25;;;;;;;4.00;2.90;;;24.30;52.00;;;;;;5073452;28;20508;-79
2021/09/06 10:50:52;;;;;;;3.90;2.95;;;24.30;51.80;;;;;;5071995;28;20066;-77
2021/09/06 10:53:21;;;;;;;3.78;2.80;;;24.30;51.40;;;;;;5074441;28;20027;-78
2021/09/06 10:55:49;;;;;;;4.53;3.20;;;24.40;50.90;;;;;;5068763;28;20025;-78
2021/09/06 10:58:15;;;;;;;3.50;2.80;;;24.40;50.40;;;;;;5071218;28;20024;-78
2021/09/06 11:00:40;;;;;;;4.15;3.00;;;24.50;50.20;;;;;;5065936;28;20028;-80
2021/09/06 11:03:06;;;;;;;3.90;2.90;;;24.50;49.90;;;;;;5066887;28;20099;-79
2021/09/06 11:05:32;;;;;;;3.33;2.72;;;24.60;49.80;;;;;;5067922;28;20024;-80
2021/09/06 11:08:08;;;;;;;3.92;2.75;;;24.70;49.50;;;;;;5062066;28;20025;-77
2021/09/06 11:10:33;;;;;;;3.42;2.75;;;24.70;49.20;;;;;;5066840;28;20094;-80
2021/09/06 11:13:01;;;;;;;2.80;2.50;;;24.80;49.30;;;;;;5070067;28;20032;-78
2021/09/06 11:15:32;;;;;;;3.42;2.92;;;24.90;49.20;;;;;;5064944;28;20029;-78
2021/09/06 11:18:03;;;;;;;4.33;2.83;;;24.90;48.60;;;;;;5066144;28;20051;-78
2021/09/06 11:20:31;;;;;;;3.83;2.77;;;24.90;48.70;;;;;;5068184;28;20020;-78
2021/09/06 11:23:02;;;;;;;4.47;3.40;;;24.90;48.60;;;;;;5071408;28;20407;-80
2021/09/06 11:25:30;;;;;;;3.30;2.85;;;25.00;48.40;;;;;;5069492;28;20106;-80
2021/09/06 11:28:07;;;;;;;2.95;2.38;;;25.10;48.40;;;;;;5085705;28;20024;-78
2021/09/06 11:30:36;;;;;;;2.92;2.28;;;25.20;48.40;;;;;;5071776;28;20035;-80
2021/09/06 11:33:05;;;;;;;3.17;2.10;;;25.20;48.20;;;;;;5062208;28;20077;-80
2021/09/06 11:35:34;;;;;;;7.15;4.75;;;25.30;48.40;;;;;;5065490;28;20115;-79
2021/09/06 11:38:02;;;;;;;4.97;3.50;;;25.20;46.80;;;;;;5070427;28;20116;-80
2021/09/06 11:40:29;;;;;;;4.10;2.97;;;25.20;47.20;;;;;;5070796;28;20631;-80
2021/09/06 11:42:55;;;;;;;6.07;4.03;;;25.20;46.70;;;;;;5074639;28;20105;-83
2021/09/06 11:45:21;;;;;;;3.92;3.00;;;25.20;46.20;;;;;;5080634;28;20028;-79
2021/09/06 11:47:47;;;;;;;4.20;2.95;;;25.30;46.40;;;;;;5069018;28;20024;-79
2021/09/06 11:50:14;;;;;;;3.58;2.58;;;25.50;45.90;;;;;;5062624;28;20399;-80
2021/09/06 11:52:41;;;;;;;4.00;2.92;;;25.50;45.90;;;;;;5074596;28;20277;-82
2021/09/06 11:55:13;;;;;;;3.45;2.80;;;25.60;45.50;;;;;;5084543;28;20085;-81
2021/09/06 11:57:39;;;;;;;;;;;25.80;45.50;;;;;;5070640;28;20621;-80
2021/09/06 12:00:09;;;;;;;3.85;2.85;;;26.00;45.40;;;;;;5068693;28;20003;-79
2021/09/06 12:02:45;;;;;;;4.97;3.00;;;26.10;45.10;;;;;;5067394;28;20108;-79
2021/09/06 12:05:15;;;;;;;4.38;3.13;;;26.20;43.50;;;;;;5071366;28;20481;-77
2021/09/06 12:07:49;;;;;;;5.63;3.90;;;26.10;42.10;;;;;;5071757;28;20035;-79
2021/09/06 12:10:31;;;;;;;6.13;4.00;;;25.80;41.00;;;;;;5073850;28;20016;-80
2021/09/06 12:13:01;;;;;;;3.75;3.17;;;25.80;41.50;;;;;;5074117;28;20028;-81
2021/09/06 12:15:28;;;;;;;3.03;2.72;;;26.00;42.20;;;;;;5075436;28;20128;-78
2021/09/06 12:18:08;;;;;;;3.53;2.70;;;26.30;42.30;;;;;;5074821;28;20033;-78
2021/09/06 12:20:38;;;;;;;3.40;2.70;;;26.50;42.40;;;;;;5071738;28;20020;-81
2021/09/06 12:23:04;;;;;;;4.35;3.42;;;26.70;42.30;;;;;;5071646;28;20176;-78
2021/09/06 12:25:29;;;;;;;5.43;3.72;;;26.90;42.30;;;;;;5072718;28;20413;-81
2021/09/06 12:28:06;;;;;;;4.10;3.42;;;27.00;42.30;;;;;;5072732;28;20483;-86
2021/09/06 12:30:31;;;;;;;3.63;3.00;;;27.20;42.40;;;;;;5068317;28;20024;-83
2021/09/06 12:32:57;;;;;;;5.25;3.60;;;27.30;42.40;;;;;;5066884;28;20043;-86
2021/09/06 12:35:22;;;;;;;4.63;3.65;;;27.50;42.20;;;;;;5072040;28;20020;-86
2021/09/06 12:37:49;;;;;;;4.40;3.30;;;27.60;42.00;;;;;;5070153;28;20435;-84
2021/09/06 12:40:15;;;;;;;5.05;3.70;;;27.70;42.20;;;;;;5072268;28;20039;-82
2021/09/06 12:42:40;;;;;;;4.55;3.53;;;27.80;41.70;;;;;;5070171;28;20103;-82
2021/09/06 12:45:06;;;;;;;5.63;4.68;;;27.90;41.70;;;;;;5074408;28;20024;-82
2021/09/06 12:47:32;;;;;;;4.30;3.60;;;27.80;40.30;;;;;;5077364;28;20275;-82